createdAt,value
2023-03-16T00:02:13.651Z,-0.94
2023-03-16T00:05:15.991Z,-1.03
2023-03-16T00:08:19.357Z,-1.12
2023-03-16T00:11:21.757Z,-1.10
2023-03-16T00:14:24.090Z,-1.20
2023-03-16T00:17:26.887Z,-1.17
2023-03-16T00:20:29.446Z,-1.18
2023-03-16T00:23:35.863Z,-1.27
2023-03-16T00:26:38.285Z,-1.39
2023-03-16T00:29:48.414Z,-1.38
2023-03-16T00:32:54.224Z,-1.59
2023-03-16T00:36:04.107Z,-1.32
2023-03-16T00:39:07.076Z,-1.30
2023-03-16T00:42:14.498Z,-1.25
2023-03-16T00:45:17.323Z,-1.15
2023-03-16T00:48:21.630Z,-1.18
2023-03-16T00:51:24.402Z,-1.07
2023-03-16T00:54:27.177Z,-0.96
2023-03-16T00:57:30.464Z,-0.79
2023-03-16T01:00:34.107Z,-0.82
2023-03-16T01:03:38.586Z,-0.85
2023-03-16T01:06:42.984Z,-0.85
2023-03-16T01:09:45.722Z,-0.86
2023-03-16T01:12:48.259Z,-0.83
2023-03-16T01:15:51.808Z,-0.88
2023-03-16T01:18:54.396Z,-0.93
2023-03-16T01:21:58.446Z,-1.08
2023-03-16T01:25:00.758Z,-1.18
2023-03-16T01:28:03.764Z,-1.33
2023-03-16T01:31:09.501Z,-1.30
2023-03-16T01:34:16.789Z,-1.37
2023-03-16T01:37:19.624Z,-1.36
2023-03-16T01:40:34.635Z,-1.36
2023-03-16T01:43:38.982Z,-1.38
2023-03-16T01:46:42.933Z,-1.40
2023-03-16T01:49:48.344Z,-1.45
2023-03-16T01:52:52.300Z,-1.48
2023-03-16T01:55:55.519Z,-1.66
2023-03-16T01:59:00.107Z,-1.58
2023-03-16T02:02:03.842Z,-1.58
2023-03-16T02:05:17.757Z,-1.56
2023-03-16T02:08:23.018Z,-1.55
2023-03-16T02:11:26.132Z,-1.50
2023-03-16T02:14:35.762Z,-1.54
2023-03-16T02:17:38.801Z,-1.65
2023-03-16T02:21:18.118Z,-1.67
2023-03-16T02:24:20.659Z,-1.62
2023-03-16T02:28:02.446Z,-1.57
2023-03-16T02:31:07.849Z,-1.56
2023-03-16T02:34:10.406Z,-1.55
2023-03-16T02:37:13.125Z,-1.32
2023-03-16T02:40:27.981Z,-1.33
2023-03-16T02:43:34.015Z,-1.34
2023-03-16T02:46:47.522Z,-1.33
2023-03-16T02:49:50.967Z,-1.41
2023-03-16T02:52:53.341Z,-1.45
2023-03-16T02:55:56.002Z,-1.49
2023-03-16T02:58:58.859Z,-1.57
2023-03-16T03:02:01.867Z,-1.51
2023-03-16T03:05:04.329Z,-1.50
2023-03-16T03:08:07.057Z,-1.61
2023-03-16T03:11:09.958Z,-1.56
2023-03-16T03:14:17.480Z,-1.50
2023-03-16T03:17:30.145Z,-1.63
2023-03-16T03:20:33.586Z,-1.58
2023-03-16T03:23:35.944Z,-1.50
2023-03-16T03:26:38.323Z,-1.55
2023-03-16T03:29:44.740Z,-1.58
2023-03-16T03:32:47.201Z,-1.48
2023-03-16T03:35:58.317Z,-1.56
2023-03-16T03:39:07.511Z,-1.58
2023-03-16T03:42:11.806Z,-1.49
2023-03-16T03:45:15.623Z,-1.52
2023-03-16T03:48:18.282Z,-1.56
2023-03-16T03:51:21.866Z,-1.61
2023-03-16T03:54:38.338Z,-1.62
2023-03-16T03:57:44.803Z,-1.63
2023-03-16T04:00:47.866Z,-1.68
2023-03-16T04:03:50.803Z,-1.72
2023-03-16T04:06:53.922Z,-1.76
2023-03-16T04:09:58.052Z,-1.83
2023-03-16T04:13:13.716Z,-1.82
2023-03-16T04:16:17.312Z,-1.80
2023-03-16T04:19:23.993Z,-1.92
2023-03-16T04:22:30.454Z,-1.93
2023-03-16T04:25:33.241Z,-1.91
2023-03-16T04:28:35.728Z,-1.84
2023-03-16T04:31:38.080Z,-1.91
2023-03-16T04:34:44.392Z,-1.86
2023-03-16T04:37:48.944Z,-1.93
2023-03-16T04:40:51.983Z,-2.17
2023-03-16T04:43:59.362Z,-2.17
2023-03-16T04:47:02.057Z,-2.12
2023-03-16T04:50:12.733Z,-2.12
2023-03-16T04:53:17.523Z,-1.56
2023-03-16T04:56:23.971Z,-1.58
2023-03-16T04:59:32.035Z,-1.56
2023-03-16T05:03:00.579Z,-1.27
2023-03-16T05:06:03.481Z,-1.18
2023-03-16T05:09:09.051Z,-0.77
2023-03-16T05:12:13.786Z,-0.81
2023-03-16T05:15:18.484Z,-0.85
2023-03-16T05:18:29.640Z,-1.14
2023-03-16T05:21:32.286Z,-0.95
2023-03-16T05:24:38.895Z,-0.95
2023-03-16T05:27:43.646Z,-0.80
2023-03-16T05:30:48.897Z,-0.66
2023-03-16T05:33:57.638Z,-0.59
2023-03-16T05:37:00.395Z,-0.54
2023-03-16T05:40:12.100Z,-0.85
2023-03-16T05:43:14.447Z,-1.00
2023-03-16T05:46:22.351Z,-0.99
2023-03-16T05:49:26.825Z,-1.18
2023-03-16T05:52:30.099Z,-1.10
2023-03-16T05:55:34.471Z,-1.19
2023-03-16T05:58:38.273Z,-1.21
2023-03-16T06:01:44.417Z,-1.26
2023-03-16T06:04:47.316Z,-1.39
2023-03-16T06:07:50.426Z,-1.26
2023-03-16T06:10:53.623Z,-0.83
2023-03-16T06:13:58.067Z,-0.70
2023-03-16T06:17:01.291Z,-0.57
2023-03-16T06:20:11.550Z,-0.36
2023-03-16T06:23:16.224Z,-0.33
2023-03-16T06:26:19.389Z,-0.42
2023-03-16T06:29:23.647Z,-0.22
2023-03-16T06:32:26.466Z,-0.03
2023-03-16T06:35:30.317Z,-0.25
2023-03-16T06:38:48.012Z,-0.23
2023-03-16T06:42:01.066Z,-0.05
2023-03-16T06:45:03.987Z,-0.16
2023-03-16T06:48:10.944Z,-0.20
2023-03-16T06:51:16.679Z,0.02
2023-03-16T06:54:20.954Z,0.17
2023-03-16T06:57:24.499Z,-0.01
2023-03-16T07:00:27.500Z,0.09
2023-03-16T07:03:30.484Z,0.16
2023-03-16T07:06:38.353Z,0.37
2023-03-16T07:09:42.205Z,0.34
2023-03-16T07:12:45.523Z,0.70
2023-03-16T07:15:52.388Z,0.66
2023-03-16T07:18:56.429Z,0.58
2023-03-16T07:21:58.793Z,0.75
2023-03-16T07:25:03.446Z,0.70
2023-03-16T07:28:06.393Z,1.08
2023-03-16T07:31:15.021Z,0.88
2023-03-16T07:34:18.496Z,0.88
2023-03-16T07:37:26.348Z,0.84
2023-03-16T07:40:34.620Z,0.85
2023-03-16T07:43:44.589Z,0.91
2023-03-16T07:46:49.835Z,1.02
2023-03-16T07:49:52.824Z,1.06
2023-03-16T07:52:55.433Z,1.12
2023-03-16T07:55:58.408Z,1.27
2023-03-16T07:59:02.270Z,1.27
2023-03-16T08:02:06.310Z,1.33
2023-03-16T08:05:11.099Z,1.39
2023-03-16T08:08:16.316Z,1.18
2023-03-16T08:11:23.928Z,1.27
2023-03-16T08:14:34.688Z,1.59
2023-03-16T08:17:45.876Z,1.57
2023-03-16T08:20:55.002Z,1.79
2023-03-16T08:23:57.521Z,2.18
2023-03-16T08:27:01.153Z,2.44
2023-03-16T08:30:11.785Z,2.51
2023-03-16T08:33:18.414Z,2.50
2023-03-16T08:36:21.246Z,2.28
2023-03-16T08:39:26.261Z,2.29
2023-03-16T08:42:29.170Z,2.10
2023-03-16T08:45:36.066Z,2.09
2023-03-16T08:48:38.430Z,2.14
2023-03-16T08:51:40.802Z,2.06
2023-03-16T08:54:59.736Z,2.71
2023-03-16T08:58:04.776Z,3.16
2023-03-16T09:01:09.205Z,3.11
2023-03-16T09:04:13.285Z,3.35
2023-03-16T09:07:15.630Z,3.67
2023-03-16T09:10:19.176Z,3.21
2023-03-16T09:13:21.552Z,3.17
2023-03-16T09:16:25.820Z,3.39
2023-03-16T09:19:34.810Z,3.17
2023-03-16T09:22:43.778Z,3.14
2023-03-16T09:25:46.672Z,2.91
2023-03-16T09:28:49.441Z,3.33
2023-03-16T09:31:52.276Z,3.22
2023-03-16T09:34:55.475Z,3.18
2023-03-16T09:38:06.573Z,3.30
2023-03-16T09:41:10.812Z,3.21
2023-03-16T09:44:41.302Z,3.08
2023-03-16T09:47:44.608Z,2.73
2023-03-16T09:50:49.718Z,2.99
2023-03-16T09:53:56.797Z,3.14
2023-03-16T09:57:01.594Z,3.15
2023-03-16T10:00:22.455Z,3.31
2023-03-16T10:03:31.840Z,3.05
2023-03-16T10:06:34.488Z,3.13
2023-03-16T10:09:39.106Z,2.92
2023-03-16T10:12:48.567Z,2.69
2023-03-16T10:15:52.681Z,2.46
2023-03-16T10:18:59.448Z,2.39
2023-03-16T10:22:06.750Z,2.66
2023-03-16T10:25:13.174Z,2.47
2023-03-16T10:28:21.649Z,2.62
2023-03-16T10:31:24.830Z,2.93
2023-03-16T10:34:27.498Z,2.79
2023-03-16T10:37:31.476Z,2.28
2023-03-16T10:40:38.829Z,2.55
2023-03-16T10:43:42.199Z,2.19
2023-03-16T10:46:49.563Z,2.03
2023-03-16T10:49:52.068Z,2.05
2023-03-16T10:52:57.112Z,2.30
2023-03-16T10:56:02.843Z,2.32
2023-03-16T10:59:15.466Z,2.36
2023-03-16T11:02:23.936Z,2.02
2023-03-16T11:05:35.565Z,2.11
2023-03-16T11:08:39.998Z,2.22
2023-03-16T11:11:49.613Z,2.54
2023-03-16T11:14:52.230Z,2.53
2023-03-16T11:17:54.818Z,2.69
2023-03-16T11:20:59.076Z,2.79
2023-03-16T11:24:04.409Z,2.79
2023-03-16T11:27:18.218Z,3.02
2023-03-16T11:31:01.741Z,2.94
2023-03-16T11:34:04.256Z,3.23
2023-03-16T11:37:32.706Z,3.19
2023-03-16T11:41:03.995Z,3.33
2023-03-16T11:44:37.118Z,3.35
2023-03-16T11:48:12.363Z,3.41
2023-03-16T11:51:33.632Z,3.49
2023-03-16T11:55:15.417Z,3.50
2023-03-16T11:58:32.650Z,3.25
2023-03-16T12:02:05.323Z,3.11
2023-03-16T12:05:43.868Z,3.26
2023-03-16T12:09:05.477Z,3.08
2023-03-16T12:12:19.614Z,3.04
2023-03-16T12:15:40.302Z,2.66
2023-03-16T12:18:46.907Z,2.96
2023-03-16T12:21:57.454Z,3.16
2023-03-16T12:24:59.954Z,3.33
2023-03-16T12:28:07.713Z,3.62
2023-03-16T12:31:18.029Z,3.82
2023-03-16T12:34:34.673Z,3.59
2023-03-16T12:37:57.503Z,3.75
2023-03-16T12:40:59.929Z,3.67
2023-03-16T12:44:12.925Z,3.78
2023-03-16T12:47:31.447Z,4.21
2023-03-16T12:50:34.456Z,3.92
2023-03-16T12:53:44.910Z,4.11
2023-03-16T12:56:49.239Z,3.89
2023-03-16T12:59:58.896Z,4.14
2023-03-16T13:03:01.671Z,3.89
2023-03-16T13:06:04.508Z,4.08
2023-03-16T13:09:07.536Z,3.82
2023-03-16T13:12:10.604Z,3.95
2023-03-16T13:15:23.521Z,3.90
2023-03-16T13:18:35.410Z,4.16
2023-03-16T13:21:41.137Z,4.05
2023-03-16T13:24:52.896Z,4.26
2023-03-16T13:27:56.609Z,4.08
2023-03-16T13:30:59.413Z,4.12
2023-03-16T13:34:02.926Z,4.10
2023-03-16T13:37:05.438Z,4.18
2023-03-16T13:40:20.974Z,3.94
2023-03-16T13:43:28.900Z,3.90
2023-03-16T13:46:31.355Z,4.21
2023-03-16T13:49:34.308Z,4.34
2023-03-16T13:52:36.743Z,4.61
2023-03-16T13:55:39.529Z,4.64
2023-03-16T13:58:46.230Z,5.13
2023-03-16T14:01:49.306Z,5.24
2023-03-16T14:04:51.701Z,5.78
2023-03-16T14:07:55.289Z,6.42
2023-03-16T14:11:01.082Z,6.31
2023-03-16T14:14:17.690Z,6.02
2023-03-16T14:17:21.951Z,5.98
2023-03-16T14:20:25.595Z,6.43
2023-03-16T14:23:33.691Z,6.13
2023-03-16T14:26:46.477Z,6.30
2023-03-16T14:29:55.312Z,6.39
2023-03-16T14:33:06.931Z,6.20
2023-03-16T14:36:20.221Z,6.64
2023-03-16T14:39:22.603Z,6.61
2023-03-16T14:42:29.063Z,6.25
2023-03-16T14:45:36.075Z,6.10
2023-03-16T14:48:38.836Z,6.06
2023-03-16T14:51:42.056Z,6.12
2023-03-16T14:54:44.485Z,6.73
2023-03-16T14:57:47.332Z,6.57
2023-03-16T15:00:54.522Z,6.37
2023-03-16T15:03:57.320Z,6.30
2023-03-16T15:06:59.676Z,6.15
2023-03-16T15:10:10.015Z,6.10
2023-03-16T15:13:24.484Z,5.98
2023-03-16T15:16:28.166Z,6.06
2023-03-16T15:19:30.739Z,5.88
2023-03-16T15:22:38.533Z,5.73
2023-03-16T15:25:45.930Z,5.44
2023-03-16T15:28:48.349Z,5.65
2023-03-16T15:31:53.395Z,5.55
2023-03-16T15:34:57.916Z,5.31
2023-03-16T15:38:02.289Z,5.18
2023-03-16T15:41:04.730Z,5.06
2023-03-16T15:44:13.387Z,5.00
2023-03-16T15:47:16.543Z,4.77
2023-03-16T15:50:22.018Z,4.75
2023-03-16T15:53:32.641Z,4.60
2023-03-16T15:56:51.253Z,4.27
2023-03-16T15:59:56.818Z,4.00
2023-03-16T16:03:00.195Z,3.82
2023-03-16T16:06:02.888Z,3.49
2023-03-16T16:09:07.997Z,3.31
2023-03-16T16:12:14.573Z,2.84
2023-03-16T16:15:29.827Z,2.72
2023-03-16T16:18:36.660Z,2.90
2023-03-16T16:21:38.992Z,2.75
2023-03-16T16:24:41.329Z,2.60
2023-03-16T16:27:43.701Z,2.48
2023-03-16T16:30:46.469Z,2.41
2023-03-16T16:33:49.139Z,2.20
2023-03-16T16:36:51.986Z,2.24
2023-03-16T16:39:54.336Z,2.24
2023-03-16T16:43:05.430Z,2.02
2023-03-16T16:46:15.679Z,1.83
2023-03-16T16:49:30.703Z,1.76
2023-03-16T16:52:33.396Z,1.67
2023-03-16T16:55:35.843Z,1.48
2023-03-16T16:58:38.725Z,1.59
2023-03-16T17:01:42.035Z,1.59
2023-03-16T17:04:44.400Z,1.49
2023-03-16T17:07:47.155Z,1.35
2023-03-16T17:10:49.874Z,1.20
2023-03-16T17:13:52.819Z,1.06
2023-03-16T17:16:55.342Z,0.98
2023-03-16T17:19:57.856Z,1.05
2023-03-16T17:23:00.449Z,0.93
2023-03-16T17:26:12.208Z,0.84
2023-03-16T17:29:34.705Z,0.75
2023-03-16T17:32:37.121Z,0.62
2023-03-16T17:35:42.246Z,0.45
2023-03-16T17:38:44.648Z,0.46
2023-03-16T17:41:49.820Z,0.15
2023-03-16T17:44:53.708Z,0.31
2023-03-16T17:47:56.489Z,0.32
2023-03-16T17:50:58.966Z,0.30
2023-03-16T17:54:01.577Z,0.25
2023-03-16T17:57:04.473Z,0.39
2023-03-16T18:00:22.981Z,0.37
2023-03-16T18:03:29.990Z,0.39
2023-03-16T18:06:33.009Z,0.17
2023-03-16T18:09:35.664Z,0.27
2023-03-16T18:12:38.179Z,0.21
2023-03-16T18:15:40.676Z,0.11
2023-03-16T18:18:43.454Z,-0.14
2023-03-16T18:21:45.925Z,-0.21
2023-03-16T18:24:49.321Z,-0.30
2023-03-16T18:27:51.634Z,-0.37
2023-03-16T18:30:54.339Z,-0.35
2023-03-16T18:33:59.706Z,-0.52
2023-03-16T18:37:06.307Z,-0.50
2023-03-16T18:40:13.570Z,-0.51
2023-03-16T18:43:17.260Z,-0.52
2023-03-16T18:46:19.775Z,-0.52
2023-03-16T18:49:30.950Z,-0.51
2023-03-16T18:52:34.741Z,-0.53
2023-03-16T18:55:44.965Z,-0.63
2023-03-16T18:58:49.176Z,-0.66
2023-03-16T19:01:52.552Z,-0.70
2023-03-16T19:04:59.276Z,-0.70
2023-03-16T19:08:03.622Z,-0.75
2023-03-16T19:11:06.113Z,-0.74
2023-03-16T19:14:22.465Z,-0.78
2023-03-16T19:17:24.881Z,-0.74
2023-03-16T19:20:30.478Z,-0.73
2023-03-16T19:23:36.098Z,-0.81
2023-03-16T19:26:39.142Z,-0.91
2023-03-16T19:29:41.521Z,-0.90
2023-03-16T19:32:43.923Z,-0.96
2023-03-16T19:35:51.907Z,-1.06
2023-03-16T19:38:55.060Z,-1.20
2023-03-16T19:41:59.158Z,-1.18
2023-03-16T19:45:02.175Z,-1.19
2023-03-16T19:48:12.780Z,-1.25
2023-03-16T19:51:17.560Z,-1.22
2023-03-16T19:54:28.531Z,-1.29
2023-03-16T19:57:31.937Z,-1.43
2023-03-16T20:00:34.873Z,-1.39
2023-03-16T20:03:38.718Z,-1.36
2023-03-16T20:06:41.066Z,-1.34
2023-03-16T20:09:44.166Z,-1.35
2023-03-16T20:12:47.597Z,-1.29
2023-03-16T20:15:50.489Z,-1.28
2023-03-16T20:18:57.866Z,-1.24
2023-03-16T20:22:00.791Z,-1.33
2023-03-16T20:25:05.401Z,-1.34
2023-03-16T20:28:18.067Z,-1.36
2023-03-16T20:31:25.192Z,-1.60
2023-03-16T20:34:30.885Z,-1.44
2023-03-16T20:37:33.939Z,-1.51
2023-03-16T20:40:36.750Z,-1.57
2023-03-16T20:43:39.371Z,-1.67
2023-03-16T20:46:44.721Z,-1.72
2023-03-16T20:49:47.786Z,-1.66
2023-03-16T20:52:51.017Z,-1.69
2023-03-16T20:55:54.717Z,-1.69
2023-03-16T20:58:57.151Z,-1.73
2023-03-16T21:02:01.865Z,-1.78
2023-03-16T21:05:06.290Z,-1.77
2023-03-16T21:08:09.041Z,-1.75
2023-03-16T21:11:39.435Z,-1.76
2023-03-16T21:14:42.072Z,-1.82
2023-03-16T21:17:44.475Z,-1.80
2023-03-16T21:20:49.284Z,-1.78
2023-03-16T21:23:51.897Z,-1.92
2023-03-16T21:26:54.203Z,-1.86
2023-03-16T21:29:58.954Z,-1.84
2023-03-16T21:33:02.143Z,-2.05
2023-03-16T21:36:08.229Z,-1.86
2023-03-16T21:39:19.826Z,-1.96
2023-03-16T21:42:22.258Z,-1.86
2023-03-16T21:45:25.603Z,-1.83
2023-03-16T21:48:37.447Z,-1.62
2023-03-16T21:51:40.265Z,-1.69
2023-03-16T21:54:42.938Z,-1.79
2023-03-16T21:57:45.686Z,-1.71
2023-03-16T22:00:48.695Z,-1.64
2023-03-16T22:03:57.697Z,-1.77
2023-03-16T22:07:00.014Z,-1.73
2023-03-16T22:10:02.391Z,-1.73
2023-03-16T22:13:05.263Z,-1.73
2023-03-16T22:16:15.069Z,-1.74
2023-03-16T22:19:18.216Z,-2.06
2023-03-16T22:22:21.386Z,-1.83
2023-03-16T22:25:27.073Z,-1.82
2023-03-16T22:28:29.728Z,-1.88
2023-03-16T22:31:34.806Z,-1.86
2023-03-16T22:34:43.954Z,-1.83
2023-03-16T22:37:46.400Z,-1.88
2023-03-16T22:40:48.957Z,-1.95
2023-03-16T22:43:51.448Z,-1.81
2023-03-16T22:46:53.863Z,-1.64
2023-03-16T22:49:56.244Z,-1.68
2023-03-16T22:53:01.003Z,-1.59
2023-03-16T22:56:03.950Z,-1.46
2023-03-16T22:59:07.768Z,-1.40
2023-03-16T23:02:16.675Z,-1.35
2023-03-16T23:05:22.551Z,-1.47
2023-03-16T23:08:26.782Z,-1.66
2023-03-16T23:11:32.697Z,-1.91
2023-03-16T23:14:38.245Z,-1.75
2023-03-16T23:17:40.798Z,-1.63
2023-03-16T23:20:43.398Z,-1.69
2023-03-16T23:24:00.686Z,-1.76
2023-03-16T23:27:03.525Z,-1.70
2023-03-16T23:30:25.859Z,-1.79
2023-03-16T23:33:28.305Z,-1.58
2023-03-16T23:36:30.731Z,-1.57
2023-03-16T23:39:33.149Z,-1.61
2023-03-16T23:42:36.297Z,-1.70
2023-03-16T23:45:44.672Z,-1.60
2023-03-16T23:48:48.877Z,-1.61
2023-03-16T23:51:51.700Z,-1.67
2023-03-16T23:54:53.987Z,-1.64
2023-03-16T23:57:56.524Z,-1.54
